createdAt,value
2023-05-06T00:01:23.191Z,28.27
2023-05-06T00:03:50.430Z,29.42
2023-05-06T00:06:17.197Z,30.17
2023-05-06T00:08:43.826Z,24.60
2023-05-06T00:11:10.454Z,24.98
2023-05-06T00:13:37.095Z,26.48
2023-05-06T00:16:03.862Z,27.98
2023-05-06T00:18:30.491Z,29.85
2023-05-06T00:20:57.156Z,26.63
2023-05-06T00:23:23.764Z,30.48
2023-05-06T00:25:50.409Z,24.10
2023-05-06T00:28:17.046Z,22.20
2023-05-06T00:30:43.638Z,27.60
2023-05-06T00:33:10.397Z,24.88
2023-05-06T00:35:37.008Z,27.08
2023-05-06T00:38:11.178Z,26.92
2023-05-06T00:40:37.846Z,26.85
2023-05-06T00:43:04.557Z,25.48
2023-05-06T00:45:31.360Z,32.00
2023-05-06T00:47:58.151Z,28.52
2023-05-06T00:50:25.157Z,25.10
2023-05-06T00:52:51.805Z,27.55
2023-05-06T00:55:18.461Z,30.95
2023-05-06T00:57:45.069Z,25.55
2023-05-06T01:03:39.687Z,33.33
2023-05-06T01:06:18.459Z,25.85
2023-05-06T01:08:53.532Z,28.23
2023-05-06T01:11:38.664Z,26.05
2023-05-06T01:14:34.540Z,24.77
2023-05-06T01:17:06.927Z,27.60
2023-05-06T01:19:36.801Z,25.20
2023-05-06T01:22:03.546Z,22.05
2023-05-06T01:24:43.745Z,21.48
2023-05-06T01:27:11.369Z,23.00
2023-05-06T01:29:39.729Z,21.58
2023-05-06T01:32:19.838Z,23.77
2023-05-06T01:34:56.346Z,23.65
2023-05-06T01:37:40.802Z,25.23
2023-05-06T01:40:07.995Z,21.40
2023-05-06T01:42:34.815Z,23.38
2023-05-06T01:45:02.429Z,21.08
2023-05-06T01:47:29.097Z,25.75
2023-05-06T01:49:55.852Z,21.83
2023-05-06T01:52:22.450Z,19.85
2023-05-06T01:54:49.064Z,19.70
2023-05-06T01:57:15.686Z,22.88
2023-05-06T01:59:42.334Z,23.20
2023-05-06T02:02:11.459Z,20.33
2023-05-06T02:04:38.055Z,21.02
2023-05-06T02:07:05.176Z,18.05
2023-05-06T02:09:31.772Z,22.17
2023-05-06T02:11:58.407Z,22.98
2023-05-06T02:14:25.017Z,18.88
2023-05-06T02:16:51.647Z,22.92
2023-05-06T02:19:18.295Z,21.13
2023-05-06T02:21:44.935Z,20.65
2023-05-06T02:24:11.565Z,21.10
2023-05-06T02:26:38.214Z,20.38
2023-05-06T02:29:04.818Z,21.90
2023-05-06T02:31:31.439Z,20.20
2023-05-06T02:33:58.081Z,22.42
2023-05-06T02:36:24.715Z,18.70
2023-05-06T02:38:51.334Z,24.52
2023-05-06T02:41:17.943Z,19.25
2023-05-06T02:43:44.693Z,19.25
2023-05-06T02:46:11.392Z,19.85
2023-05-06T02:48:38.052Z,18.25
2023-05-06T02:51:05.385Z,18.60
2023-05-06T02:53:32.021Z,22.55
2023-05-06T02:55:58.649Z,23.05
2023-05-06T02:58:25.227Z,23.80
2023-05-06T03:00:52.020Z,22.63
2023-05-06T03:03:18.776Z,19.17
2023-05-06T03:05:45.431Z,18.45
2023-05-06T03:08:12.127Z,21.25
2023-05-06T03:10:38.816Z,22.95
2023-05-06T03:13:05.499Z,21.05
2023-05-06T03:15:32.188Z,19.63
2023-05-06T03:17:58.858Z,18.92
2023-05-06T03:20:25.482Z,18.17
2023-05-06T03:22:52.115Z,22.17
2023-05-06T03:25:18.706Z,19.08
2023-05-06T03:27:45.327Z,22.70
2023-05-06T03:30:12.400Z,17.20
2023-05-06T03:32:39.045Z,19.55
2023-05-06T03:35:05.990Z,17.48
2023-05-06T03:37:32.899Z,17.83
2023-05-06T03:39:59.553Z,17.25
2023-05-06T03:42:26.254Z,18.65
2023-05-06T03:44:52.904Z,19.58
2023-05-06T03:47:19.667Z,18.33
2023-05-06T03:49:46.286Z,19.50
2023-05-06T03:52:12.972Z,19.33
2023-05-06T03:54:39.604Z,16.48
2023-05-06T03:57:06.204Z,20.25
2023-05-06T03:59:32.854Z,16.17
2023-05-06T04:01:59.529Z,18.85
2023-05-06T04:04:26.194Z,22.23
2023-05-06T04:06:52.885Z,18.40
2023-05-06T04:09:19.504Z,20.38
2023-05-06T04:11:46.131Z,18.80
2023-05-06T04:14:12.736Z,18.05
2023-05-06T04:16:39.466Z,18.25
2023-05-06T04:19:06.683Z,17.98
2023-05-06T04:21:33.391Z,16.52
2023-05-06T04:24:00.066Z,19.83
2023-05-06T04:26:26.753Z,16.23
2023-05-06T04:28:53.380Z,18.73
2023-05-06T04:31:20.061Z,17.45
2023-05-06T04:33:46.777Z,17.30
2023-05-06T04:36:13.452Z,20.80
2023-05-06T04:38:40.107Z,16.83
2023-05-06T04:41:06.793Z,15.27
2023-05-06T04:43:33.406Z,16.45
2023-05-06T04:46:00.110Z,16.25
2023-05-06T04:48:26.866Z,15.27
2023-05-06T04:50:53.517Z,16.35
2023-05-06T04:53:20.239Z,15.70
2023-05-06T04:55:46.879Z,16.70
2023-05-06T04:58:13.510Z,18.50
2023-05-06T05:00:40.152Z,15.45
2023-05-06T05:03:06.903Z,19.35
2023-05-06T05:05:33.637Z,18.80
2023-05-06T05:08:00.305Z,15.57
2023-05-06T05:10:26.952Z,16.88
2023-05-06T05:12:53.685Z,14.82
2023-05-06T05:15:20.338Z,18.02
2023-05-06T05:17:47.236Z,16.48
2023-05-06T05:20:13.927Z,15.27
2023-05-06T05:22:40.569Z,16.60
2023-05-06T05:25:08.438Z,17.25
2023-05-06T05:27:35.379Z,13.85
2023-05-06T05:30:02.057Z,14.85
2023-05-06T05:32:28.751Z,13.18
2023-05-06T05:34:55.439Z,13.77
2023-05-06T05:37:22.101Z,14.18
2023-05-06T05:39:48.739Z,14.77
2023-05-06T05:42:15.330Z,14.95
2023-05-06T05:44:41.966Z,14.38
2023-05-06T05:47:08.663Z,13.93
2023-05-06T05:49:35.361Z,11.95
2023-05-06T05:52:02.011Z,18.08
2023-05-06T05:54:31.857Z,11.40
2023-05-06T05:56:58.481Z,16.17
2023-05-06T05:59:26.413Z,15.43
2023-05-06T06:01:53.137Z,13.18
2023-05-06T06:04:19.856Z,13.30
2023-05-06T06:06:46.595Z,13.23
2023-05-06T06:09:13.253Z,13.60
2023-05-06T06:11:39.910Z,16.30
2023-05-06T06:14:06.707Z,18.35
2023-05-06T06:16:33.436Z,14.68
2023-05-06T06:19:00.286Z,19.77
2023-05-06T06:21:27.027Z,14.18
2023-05-06T06:23:53.708Z,16.73
2023-05-06T06:26:20.352Z,14.48
2023-05-06T06:28:47.344Z,17.17
2023-05-06T06:31:14.002Z,20.42
2023-05-06T06:33:40.690Z,20.80
2023-05-06T06:36:07.780Z,21.15
2023-05-06T06:38:34.407Z,19.30
2023-05-06T06:41:01.050Z,22.67
2023-05-06T06:43:27.686Z,25.10
2023-05-06T06:45:54.366Z,29.92
2023-05-06T06:48:21.063Z,29.23
2023-05-06T06:50:47.779Z,27.23
2023-05-06T06:53:14.481Z,28.88
2023-05-06T06:55:44.901Z,27.92
2023-05-06T06:58:11.586Z,31.17
2023-05-06T07:00:38.237Z,31.55
2023-05-06T07:03:05.060Z,30.13
2023-05-06T07:05:31.738Z,31.55
2023-05-06T07:07:58.551Z,28.73
2023-05-06T07:10:25.217Z,28.42
2023-05-06T07:12:51.897Z,27.17
2023-05-06T07:15:18.647Z,28.58
2023-05-06T07:17:45.408Z,29.88
2023-05-06T07:20:12.580Z,23.83
2023-05-06T07:22:39.742Z,22.88
2023-05-06T07:25:06.982Z,22.52
2023-05-06T07:27:33.591Z,26.80
2023-05-06T07:30:00.473Z,25.65
2023-05-06T07:32:27.141Z,26.48
2023-05-06T07:34:53.792Z,24.73
2023-05-06T07:37:20.525Z,25.02
2023-05-06T07:39:47.173Z,21.30
2023-05-06T07:42:13.838Z,21.52
2023-05-06T07:44:40.480Z,21.88
2023-05-06T07:47:07.175Z,21.27
2023-05-06T07:49:33.934Z,16.65
2023-05-06T07:52:00.544Z,21.45
2023-05-06T07:54:27.206Z,16.35
2023-05-06T07:56:53.843Z,15.30
2023-05-06T07:59:20.435Z,12.15
2023-05-06T08:01:47.066Z,15.88
2023-05-06T08:04:13.796Z,17.45
2023-05-06T08:06:40.551Z,12.20
2023-05-06T08:09:07.257Z,12.98
2023-05-06T08:11:33.894Z,9.85
2023-05-06T08:14:00.507Z,10.73
2023-05-06T08:16:27.207Z,10.55
2023-05-06T08:18:54.025Z,12.45
2023-05-06T08:21:20.732Z,12.90
2023-05-06T08:23:47.375Z,14.38
2023-05-06T08:26:13.980Z,14.65
2023-05-06T08:28:40.584Z,13.20
2023-05-06T08:31:07.321Z,16.77
2023-05-06T08:33:33.947Z,11.65
2023-05-06T08:36:00.624Z,13.82
2023-05-06T08:38:27.244Z,12.10
2023-05-06T08:40:54.174Z,12.38
2023-05-06T08:43:21.337Z,10.52
2023-05-06T08:45:48.077Z,14.90
2023-05-06T08:48:14.802Z,9.90
2023-05-06T08:50:42.406Z,8.60
2023-05-06T08:53:12.674Z,21.98
2023-05-06T08:55:41.226Z,8.65
2023-05-06T08:58:09.346Z,10.13
2023-05-06T09:00:36.069Z,11.40
2023-05-06T09:03:03.037Z,8.93
2023-05-06T09:05:29.771Z,8.57
2023-05-06T09:07:56.380Z,9.48
2023-05-06T09:10:22.971Z,8.73
2023-05-06T09:12:49.623Z,7.93
2023-05-06T09:15:16.265Z,8.00
2023-05-06T09:17:42.967Z,9.07
2023-05-06T09:20:12.158Z,8.45
2023-05-06T09:22:38.903Z,7.03
2023-05-06T09:25:05.899Z,6.72
2023-05-06T09:27:33.806Z,7.85
2023-05-06T09:30:04.022Z,7.22
2023-05-06T09:32:30.689Z,8.05
2023-05-06T09:34:57.450Z,9.73
2023-05-06T09:37:24.766Z,8.27
2023-05-06T09:39:51.591Z,7.32
2023-05-06T09:42:18.176Z,7.45
2023-05-06T09:44:45.001Z,7.68
2023-05-06T09:47:11.667Z,6.45
2023-05-06T09:49:38.418Z,8.20
2023-05-06T09:52:06.478Z,7.90
2023-05-06T09:54:33.077Z,7.13
2023-05-06T09:57:01.030Z,7.07
2023-05-06T09:59:27.882Z,8.50
2023-05-06T10:01:54.561Z,9.25
2023-05-06T10:04:22.165Z,7.80
2023-05-06T10:09:17.049Z,6.93
2023-05-06T10:11:43.710Z,7.95
2023-05-06T10:14:10.523Z,6.88
2023-05-06T10:16:37.478Z,6.53
2023-05-06T10:19:04.848Z,16.00
2023-05-06T10:21:31.714Z,7.95
2023-05-06T10:24:21.550Z,6.15
2023-05-06T10:26:48.237Z,6.35
2023-05-06T10:29:14.937Z,17.33
2023-05-06T10:31:52.867Z,6.63
2023-05-06T10:34:20.106Z,5.60
2023-05-06T10:36:46.911Z,6.35
2023-05-06T10:39:13.514Z,7.65
2023-05-06T10:41:40.201Z,5.88
2023-05-06T10:44:06.814Z,6.68
2023-05-06T10:46:33.597Z,4.28
2023-05-06T10:49:06.293Z,3.13
2023-05-06T10:51:33.754Z,4.18
2023-05-06T10:54:06.157Z,5.47
2023-05-06T10:56:33.503Z,4.28
2023-05-06T10:59:03.655Z,3.63
2023-05-06T11:01:30.470Z,4.15
2023-05-06T11:03:57.177Z,3.80
2023-05-06T11:06:44.476Z,3.83
2023-05-06T11:09:24.382Z,3.80
2023-05-06T11:11:58.055Z,4.22
2023-05-06T11:14:31.804Z,4.88
2023-05-06T11:16:59.357Z,3.65
2023-05-06T11:19:33.015Z,3.72
2023-05-06T11:22:00.712Z,6.05
2023-05-06T11:24:30.938Z,5.07
2023-05-06T11:26:58.807Z,5.13
2023-05-06T11:29:25.505Z,5.13
2023-05-06T11:31:52.410Z,2.70
2023-05-06T11:34:26.587Z,4.40
2023-05-06T11:37:06.468Z,4.07
2023-05-06T11:39:39.839Z,5.18
2023-05-06T11:42:07.564Z,4.95
2023-05-06T11:44:38.008Z,3.55
2023-05-06T11:47:08.261Z,5.50
2023-05-06T11:49:42.176Z,4.30
2023-05-06T11:52:12.222Z,4.70
2023-05-06T11:54:40.062Z,6.72
2023-05-06T11:57:06.871Z,4.47
2023-05-06T11:59:37.751Z,6.05
2023-05-06T12:02:07.916Z,6.65
2023-05-06T12:04:45.140Z,4.75
2023-05-06T12:07:13.252Z,4.13
2023-05-06T12:09:44.267Z,4.75
2023-05-06T12:12:10.960Z,4.88
2023-05-06T12:14:37.799Z,4.93
2023-05-06T12:17:04.577Z,4.82
2023-05-06T12:19:31.665Z,5.70
2023-05-06T12:22:23.323Z,5.50
2023-05-06T12:24:50.067Z,3.53
2023-05-06T12:27:33.244Z,5.80
2023-05-06T12:29:59.958Z,4.03
2023-05-06T12:32:26.641Z,3.60
2023-05-06T12:34:53.516Z,4.20
2023-05-06T12:37:28.370Z,8.35
2023-05-06T12:40:07.793Z,5.93
2023-05-06T12:42:34.547Z,6.35
2023-05-06T12:45:15.132Z,6.88
2023-05-06T12:47:52.483Z,5.93
2023-05-06T12:50:39.381Z,6.45
2023-05-06T12:53:07.339Z,7.88
2023-05-06T12:55:37.898Z,5.03
2023-05-06T12:58:09.368Z,5.25
2023-05-06T13:00:44.837Z,7.95
2023-05-06T13:03:12.560Z,5.95
2023-05-06T13:05:39.347Z,4.43
2023-05-06T13:08:07.075Z,5.32
2023-05-06T13:10:33.735Z,6.30
2023-05-06T13:13:00.486Z,6.07
2023-05-06T13:15:27.332Z,6.10
2023-05-06T13:17:54.070Z,4.75
2023-05-06T13:20:21.060Z,4.15
2023-05-06T13:22:54.348Z,6.90
2023-05-06T13:25:22.108Z,3.72
2023-05-06T13:27:48.973Z,4.38
2023-05-06T13:30:15.687Z,5.18
2023-05-06T13:32:42.689Z,4.10
2023-05-06T13:35:10.090Z,6.32
2023-05-06T13:37:36.907Z,6.35
2023-05-06T13:40:03.977Z,6.38
2023-05-06T13:42:30.643Z,5.90
2023-05-06T13:44:57.308Z,7.00
2023-05-06T13:47:23.985Z,9.40
2023-05-06T13:49:50.603Z,5.68
2023-05-06T13:52:17.254Z,5.20
2023-05-06T13:54:43.950Z,5.22
2023-05-06T13:57:10.564Z,7.32
2023-05-06T13:59:39.083Z,6.45
2023-05-06T14:02:09.063Z,5.88
2023-05-06T14:04:36.480Z,5.35
2023-05-06T14:07:06.294Z,6.18
2023-05-06T14:09:32.958Z,6.05
2023-05-06T14:11:59.591Z,5.88
2023-05-06T14:14:26.179Z,5.70
2023-05-06T14:16:52.797Z,7.10
2023-05-06T14:19:19.445Z,6.07
2023-05-06T14:21:46.229Z,8.07
2023-05-06T14:24:12.866Z,6.70
2023-05-06T14:26:39.595Z,4.65
2023-05-06T14:29:06.224Z,7.03
2023-05-06T14:31:36.440Z,7.63
2023-05-06T14:34:03.146Z,6.32
2023-05-06T14:36:30.921Z,7.35
2023-05-06T14:38:57.615Z,8.77
2023-05-06T14:41:25.624Z,8.40
2023-05-06T14:43:52.306Z,7.63
2023-05-06T14:46:19.111Z,7.50
2023-05-06T14:48:45.948Z,6.32
2023-05-06T14:51:12.614Z,15.00
2023-05-06T14:53:39.261Z,22.70
2023-05-06T14:56:09.225Z,15.35
2023-05-06T14:58:35.960Z,8.50
2023-05-06T15:01:02.674Z,11.00
2023-05-06T15:03:29.369Z,9.75
2023-05-06T15:05:56.121Z,9.20
2023-05-06T15:08:23.040Z,10.35
2023-05-06T15:10:49.736Z,9.23
2023-05-06T15:13:16.639Z,11.15
2023-05-06T15:15:43.368Z,12.40
2023-05-06T15:18:10.068Z,10.65
2023-05-06T15:20:37.003Z,9.82
2023-05-06T15:23:03.656Z,9.98
2023-05-06T15:25:35.782Z,10.93
2023-05-06T15:28:04.179Z,10.88
2023-05-06T15:30:31.010Z,11.05
2023-05-06T15:32:57.712Z,6.80
2023-05-06T15:35:24.406Z,11.95
2023-05-06T15:37:54.674Z,13.80
2023-05-06T15:40:21.293Z,14.30
2023-05-06T15:42:48.064Z,13.40
2023-05-06T15:45:14.690Z,12.18
2023-05-06T15:47:41.493Z,11.65
2023-05-06T15:50:17.826Z,12.00
2023-05-06T15:52:55.069Z,13.60
2023-05-06T15:55:21.901Z,11.82
2023-05-06T15:57:48.524Z,11.73
2023-05-06T16:00:15.371Z,14.63
2023-05-06T16:02:42.186Z,10.55
2023-05-06T16:05:09.276Z,13.60
2023-05-06T16:07:36.008Z,13.23
2023-05-06T16:10:02.841Z,14.25
2023-05-06T16:12:29.674Z,14.63
2023-05-06T16:14:56.385Z,9.77
2023-05-06T16:17:23.074Z,10.93
2023-05-06T16:19:49.682Z,11.85
2023-05-06T16:22:16.389Z,11.07
2023-05-06T16:24:43.055Z,10.07
2023-05-06T16:27:09.710Z,12.60
2023-05-06T16:29:36.332Z,11.70
2023-05-06T16:32:03.049Z,11.90
2023-05-06T16:34:29.983Z,10.80
2023-05-06T16:36:56.601Z,11.00
2023-05-06T16:39:23.255Z,10.70
2023-05-06T16:41:49.877Z,11.38
2023-05-06T16:44:16.481Z,14.27
2023-05-06T16:46:43.136Z,13.93
2023-05-06T16:49:09.779Z,10.57
2023-05-06T16:51:36.421Z,13.05
2023-05-06T16:54:03.403Z,12.27
2023-05-06T16:56:40.043Z,13.90
2023-05-06T16:59:15.059Z,11.52
2023-05-06T17:01:41.682Z,12.80
2023-05-06T17:04:08.795Z,10.20
2023-05-06T17:06:35.438Z,12.75
2023-05-06T17:09:02.121Z,8.75
2023-05-06T17:11:28.787Z,8.73
2023-05-06T17:13:55.402Z,8.43
2023-05-06T17:16:22.065Z,10.52
2023-05-06T17:18:48.839Z,9.25
2023-05-06T17:21:15.577Z,9.57
2023-05-06T17:23:42.178Z,9.65
2023-05-06T17:26:11.318Z,10.18
2023-05-06T17:28:37.948Z,11.80
2023-05-06T17:31:05.157Z,12.48
2023-05-06T17:33:31.822Z,10.30
2023-05-06T17:35:58.567Z,10.48
2023-05-06T17:38:25.324Z,6.50
2023-05-06T17:40:53.006Z,7.35
2023-05-06T17:43:19.728Z,7.18
2023-05-06T17:45:46.596Z,7.80
2023-05-06T17:48:13.381Z,8.10
2023-05-06T17:50:39.992Z,9.75
2023-05-06T17:53:06.620Z,6.38
2023-05-06T17:55:33.319Z,7.90
2023-05-06T17:58:01.141Z,7.45
2023-05-06T18:00:27.758Z,7.90
2023-05-06T18:02:55.060Z,11.15
2023-05-06T18:05:21.820Z,12.27
2023-05-06T18:07:48.445Z,14.88
2023-05-06T18:10:15.128Z,13.52
2023-05-06T18:12:41.822Z,13.10
2023-05-06T18:15:09.189Z,17.00
2023-05-06T18:17:36.087Z,14.50
2023-05-06T18:20:02.906Z,14.23
2023-05-06T18:22:29.547Z,15.18
2023-05-06T18:24:56.198Z,13.27
2023-05-06T18:27:22.870Z,16.65
2023-05-06T18:29:49.599Z,12.82
2023-05-06T18:32:16.335Z,11.32
2023-05-06T18:34:43.087Z,13.05
2023-05-06T18:37:09.755Z,11.02
2023-05-06T18:39:40.342Z,13.95
2023-05-06T18:42:06.970Z,15.20
2023-05-06T18:44:33.596Z,13.45
2023-05-06T18:47:00.196Z,16.13
2023-05-06T18:49:26.977Z,13.88
2023-05-06T18:51:53.930Z,12.80
2023-05-06T18:54:20.877Z,13.68
2023-05-06T18:56:47.565Z,12.82
2023-05-06T18:59:14.182Z,12.18
2023-05-06T19:01:41.199Z,17.80
2023-05-06T19:04:07.893Z,17.27
2023-05-06T19:06:34.577Z,18.48
2023-05-06T19:09:01.219Z,15.70
2023-05-06T19:11:27.831Z,16.27
2023-05-06T19:13:54.543Z,18.58
2023-05-06T19:16:21.180Z,17.90
2023-05-06T19:18:47.828Z,15.55
2023-05-06T19:21:14.453Z,16.80
2023-05-06T19:23:41.288Z,16.02
2023-05-06T19:26:07.996Z,15.93
2023-05-06T19:28:34.645Z,16.02
2023-05-06T19:31:01.490Z,15.88
2023-05-06T19:33:28.347Z,16.15
2023-05-06T19:35:54.994Z,16.52
2023-05-06T19:38:21.637Z,17.95
2023-05-06T19:40:48.307Z,19.15
2023-05-06T19:43:14.930Z,14.88
2023-05-06T19:45:41.602Z,21.83
2023-05-06T19:48:08.249Z,17.20
2023-05-06T19:50:34.921Z,18.33
2023-05-06T19:53:01.565Z,22.38
2023-05-06T19:55:28.226Z,21.23
2023-05-06T19:57:57.709Z,19.75
2023-05-06T20:02:51.054Z,19.75
2023-05-06T20:05:17.825Z,22.15
2023-05-06T20:07:44.421Z,19.73
2023-05-06T20:10:11.168Z,20.88
2023-05-06T20:12:37.793Z,18.50
2023-05-06T20:15:05.115Z,18.73
2023-05-06T20:17:31.873Z,18.95
2023-05-06T20:19:58.572Z,21.70
2023-05-06T20:22:25.825Z,18.98
2023-05-06T20:24:52.545Z,22.35
2023-05-06T20:27:19.868Z,15.65
2023-05-06T20:29:47.168Z,19.40
2023-05-06T20:32:13.889Z,20.58
2023-05-06T20:34:40.537Z,18.80
2023-05-06T20:37:07.213Z,19.08
2023-05-06T20:39:33.926Z,16.90
2023-05-06T20:42:00.574Z,16.83
2023-05-06T20:44:27.174Z,17.15
2023-05-06T20:46:53.905Z,17.02
2023-05-06T20:49:20.555Z,13.65
2023-05-06T20:51:47.189Z,12.88
2023-05-06T20:54:13.889Z,14.68
2023-05-06T20:56:40.526Z,12.65
2023-05-06T20:59:07.139Z,10.57
2023-05-06T21:01:33.853Z,10.95
2023-05-06T21:04:00.580Z,12.55
2023-05-06T21:06:27.335Z,9.07
2023-05-06T21:08:54.115Z,9.80
2023-05-06T21:11:20.834Z,8.77
2023-05-06T21:13:49.561Z,9.40
2023-05-06T21:16:16.950Z,9.35
2023-05-06T21:18:43.652Z,10.75
2023-05-06T21:21:10.258Z,7.80
2023-05-06T21:23:36.967Z,6.40
2023-05-06T21:26:03.595Z,6.97
2023-05-06T21:28:30.277Z,5.47
2023-05-06T21:30:56.913Z,6.25
2023-05-06T21:33:23.538Z,4.65
2023-05-06T21:35:50.154Z,4.55
2023-05-06T21:38:16.785Z,4.93
2023-05-06T21:40:43.379Z,6.20
2023-05-06T21:43:09.981Z,4.30
2023-05-06T21:45:36.616Z,4.18
2023-05-06T21:48:03.328Z,4.05
2023-05-06T21:50:30.032Z,3.65
2023-05-06T21:52:56.774Z,3.03
2023-05-06T21:55:23.498Z,4.22
2023-05-06T21:57:50.121Z,3.35
2023-05-06T22:00:17.065Z,4.03
2023-05-06T22:02:43.740Z,3.85
2023-05-06T22:05:10.632Z,4.38
2023-05-06T22:07:37.522Z,4.32
2023-05-06T22:10:04.922Z,3.35
2023-05-06T22:12:31.883Z,3.17
2023-05-06T22:14:58.549Z,3.08
2023-05-06T22:17:25.244Z,4.10
2023-05-06T22:19:51.905Z,2.83
2023-05-06T22:22:19.103Z,4.20
2023-05-06T22:24:46.119Z,3.10
2023-05-06T22:27:12.773Z,3.35
2023-05-06T22:29:39.415Z,4.30
2023-05-06T22:32:06.377Z,3.33
2023-05-06T22:34:33.029Z,3.03
2023-05-06T22:37:00.852Z,3.33
2023-05-06T22:39:27.885Z,3.40
2023-05-06T22:41:54.507Z,2.83
2023-05-06T22:44:21.131Z,4.35
2023-05-06T22:46:47.868Z,3.72
2023-05-06T22:49:14.662Z,3.15
2023-05-06T22:51:41.570Z,3.13
2023-05-06T22:54:11.105Z,3.88
2023-05-06T22:56:37.724Z,3.47
2023-05-06T22:59:05.415Z,4.95
2023-05-06T23:01:32.330Z,3.33
2023-05-06T23:03:59.389Z,3.00
2023-05-06T23:06:27.312Z,4.38
2023-05-06T23:08:53.963Z,3.53
2023-05-06T23:11:20.581Z,3.97
2023-05-06T23:13:47.394Z,4.22
2023-05-06T23:16:14.152Z,3.72
2023-05-06T23:18:40.828Z,4.20
2023-05-06T23:21:07.471Z,4.35
2023-05-06T23:23:34.207Z,3.58
2023-05-06T23:26:00.855Z,3.63
2023-05-06T23:28:27.917Z,3.92
2023-05-06T23:30:54.591Z,4.05
2023-05-06T23:33:21.287Z,3.75
2023-05-06T23:35:47.905Z,4.13
2023-05-06T23:38:14.538Z,4.30
2023-05-06T23:40:41.149Z,4.43
2023-05-06T23:43:07.959Z,3.58
2023-05-06T23:45:34.603Z,3.60
2023-05-06T23:48:01.353Z,4.85
2023-05-06T23:50:28.042Z,3.28
2023-05-06T23:52:54.681Z,4.63
2023-05-06T23:55:21.423Z,4.35
2023-05-06T23:57:48.051Z,3.50
